sensor_id;sensor_type;location;lat;lon;timestamp;P1;durP1;ratioP1;P2;durP2;ratioP2
7239;SDS011;3661;53.288;10.458;2022-12-16T00:00:40;26.20;;;24.80;;
7239;SDS011;3661;53.288;10.458;2022-12-16T00:03:12;29.23;;;27.73;;
7239;SDS011;3661;53.288;10.458;2022-12-16T00:05:44;25.52;;;24.05;;
7239;SDS011;3661;53.288;10.458;2022-12-16T00:08:19;27.48;;;25.92;;
7239;SDS011;3661;53.288;10.458;2022-12-16T00:10:55;26.05;;;24.55;;
7239;SDS011;3661;53.288;10.458;2022-12-16T00:13:28;28.08;;;26.48;;
7239;SDS011;3661;53.288;10.458;2022-12-16T00:16:04;26.00;;;24.50;;
7239;SDS011;3661;53.288;10.458;2022-12-16T00:18:38;25.55;;;24.23;;
7239;SDS011;3661;53.288;10.458;2022-12-16T00:21:11;26.08;;;24.48;;
7239;SDS011;3661;53.288;10.458;2022-12-16T00:23:43;27.27;;;25.83;;
7239;SDS011;3661;53.288;10.458;2022-12-16T00:26:15;28.50;;;26.95;;
7239;SDS011;3661;53.288;10.458;2022-12-16T00:28:47;26.40;;;24.98;;
7239;SDS011;3661;53.288;10.458;2022-12-16T00:31:21;26.77;;;25.37;;
7239;SDS011;3661;53.288;10.458;2022-12-16T00:33:54;27.20;;;25.65;;
7239;SDS011;3661;53.288;10.458;2022-12-16T00:36:27;23.13;;;21.88;;
7239;SDS011;3661;53.288;10.458;2022-12-16T00:38:59;23.75;;;22.15;;
7239;SDS011;3661;53.288;10.458;2022-12-16T00:41:31;24.23;;;22.85;;
7239;SDS011;3661;53.288;10.458;2022-12-16T00:44:03;24.15;;;22.58;;
7239;SDS011;3661;53.288;10.458;2022-12-16T00:46:37;25.33;;;23.85;;
7239;SDS011;3661;53.288;10.458;2022-12-16T00:49:10;26.73;;;25.20;;
7239;SDS011;3661;53.288;10.458;2022-12-16T00:51:42;25.73;;;24.15;;
7239;SDS011;3661;53.288;10.458;2022-12-16T00:54:14;25.17;;;23.83;;
7239;SDS011;3661;53.288;10.458;2022-12-16T00:56:48;26.48;;;25.08;;
7239;SDS011;3661;53.288;10.458;2022-12-16T00:59:20;28.55;;;26.95;;
7239;SDS011;3661;53.288;10.458;2022-12-16T01:01:53;25.73;;;24.15;;
7239;SDS011;3661;53.288;10.458;2022-12-16T01:04:26;25.67;;;24.13;;
7239;SDS011;3661;53.288;10.458;2022-12-16T01:06:59;29.00;;;27.23;;
7239;SDS011;3661;53.288;10.458;2022-12-16T01:09:32;25.58;;;24.25;;
7239;SDS011;3661;53.288;10.458;2022-12-16T01:12:05;27.08;;;25.65;;
7239;SDS011;3661;53.288;10.458;2022-12-16T01:14:39;24.35;;;23.05;;
7239;SDS011;3661;53.288;10.458;2022-12-16T01:17:13;25.00;;;23.50;;
7239;SDS011;3661;53.288;10.458;2022-12-16T01:19:45;26.38;;;25.08;;
7239;SDS011;3661;53.288;10.458;2022-12-16T01:22:19;27.23;;;25.83;;
7239;SDS011;3661;53.288;10.458;2022-12-16T01:24:52;24.25;;;22.75;;
7239;SDS011;3661;53.288;10.458;2022-12-16T01:27:24;25.40;;;23.83;;
7239;SDS011;3661;53.288;10.458;2022-12-16T01:29:57;27.67;;;26.27;;
7239;SDS011;3661;53.288;10.458;2022-12-16T01:32:33;25.60;;;24.10;;
7239;SDS011;3661;53.288;10.458;2022-12-16T01:35:05;25.77;;;24.10;;
7239;SDS011;3661;53.288;10.458;2022-12-16T01:37:39;26.40;;;24.90;;
7239;SDS011;3661;53.288;10.458;2022-12-16T01:40:16;23.53;;;22.10;;
7239;SDS011;3661;53.288;10.458;2022-12-16T01:42:51;26.65;;;25.15;;
7239;SDS011;3661;53.288;10.458;2022-12-16T01:45:30;24.23;;;22.77;;
7239;SDS011;3661;53.288;10.458;2022-12-16T01:48:09;28.60;;;27.33;;
7239;SDS011;3661;53.288;10.458;2022-12-16T01:50:50;26.77;;;25.15;;
7239;SDS011;3661;53.288;10.458;2022-12-16T01:53:32;24.70;;;23.17;;
7239;SDS011;3661;53.288;10.458;2022-12-16T01:56:06;25.80;;;24.40;;
7239;SDS011;3661;53.288;10.458;2022-12-16T01:58:38;23.67;;;22.17;;
7239;SDS011;3661;53.288;10.458;2022-12-16T02:01:13;27.52;;;26.13;;
7239;SDS011;3661;53.288;10.458;2022-12-16T02:03:48;25.50;;;24.25;;
7239;SDS011;3661;53.288;10.458;2022-12-16T02:06:22;25.33;;;24.05;;
7239;SDS011;3661;53.288;10.458;2022-12-16T02:08:55;26.97;;;25.47;;
7239;SDS011;3661;53.288;10.458;2022-12-16T02:11:37;27.17;;;25.80;;
7239;SDS011;3661;53.288;10.458;2022-12-16T02:14:43;29.23;;;27.52;;
7239;SDS011;3661;53.288;10.458;2022-12-16T02:17:32;29.73;;;28.00;;
7239;SDS011;3661;53.288;10.458;2022-12-16T02:30:07;25.58;;;24.08;;
7239;SDS011;3661;53.288;10.458;2022-12-16T02:33:02;28.80;;;27.35;;
7239;SDS011;3661;53.288;10.458;2022-12-16T02:35:42;25.85;;;24.27;;
7239;SDS011;3661;53.288;10.458;2022-12-16T02:38:22;26.10;;;24.63;;
7239;SDS011;3661;53.288;10.458;2022-12-16T02:40:59;28.38;;;26.95;;
7239;SDS011;3661;53.288;10.458;2022-12-16T02:46:25;26.80;;;25.48;;
7239;SDS011;3661;53.288;10.458;2022-12-16T02:49:05;26.85;;;25.40;;
7239;SDS011;3661;53.288;10.458;2022-12-16T02:51:38;29.52;;;27.92;;
7239;SDS011;3661;53.288;10.458;2022-12-16T02:54:11;29.17;;;27.63;;
7239;SDS011;3661;53.288;10.458;2022-12-16T02:56:48;26.27;;;24.57;;
7239;SDS011;3661;53.288;10.458;2022-12-16T02:59:33;25.55;;;24.15;;
7239;SDS011;3661;53.288;10.458;2022-12-16T03:02:11;28.30;;;26.80;;
7239;SDS011;3661;53.288;10.458;2022-12-16T03:04:53;26.60;;;25.02;;
7239;SDS011;3661;53.288;10.458;2022-12-16T03:07:30;25.52;;;24.08;;
7239;SDS011;3661;53.288;10.458;2022-12-16T03:10:06;28.15;;;26.45;;
7239;SDS011;3661;53.288;10.458;2022-12-16T03:12:43;24.83;;;23.23;;
7239;SDS011;3661;53.288;10.458;2022-12-16T03:15:19;24.77;;;23.45;;
7239;SDS011;3661;53.288;10.458;2022-12-16T03:17:55;29.42;;;27.85;;
7239;SDS011;3661;53.288;10.458;2022-12-16T03:20:32;27.27;;;25.65;;
7239;SDS011;3661;53.288;10.458;2022-12-16T03:23:10;30.27;;;28.47;;
7239;SDS011;3661;53.288;10.458;2022-12-16T03:25:46;26.45;;;25.05;;
7239;SDS011;3661;53.288;10.458;2022-12-16T03:28:25;28.33;;;26.70;;
7239;SDS011;3661;53.288;10.458;2022-12-16T03:31:05;29.03;;;27.27;;
7239;SDS011;3661;53.288;10.458;2022-12-16T03:33:46;27.90;;;26.27;;
7239;SDS011;3661;53.288;10.458;2022-12-16T03:36:29;27.08;;;25.38;;
7239;SDS011;3661;53.288;10.458;2022-12-16T03:39:06;25.40;;;23.75;;
7239;SDS011;3661;53.288;10.458;2022-12-16T03:41:39;29.40;;;27.85;;
7239;SDS011;3661;53.288;10.458;2022-12-16T03:44:13;29.25;;;27.65;;
7239;SDS011;3661;53.288;10.458;2022-12-16T03:46:47;28.10;;;26.50;;
7239;SDS011;3661;53.288;10.458;2022-12-16T03:49:20;26.90;;;25.30;;
7239;SDS011;3661;53.288;10.458;2022-12-16T03:51:54;26.10;;;24.52;;
7239;SDS011;3661;53.288;10.458;2022-12-16T03:54:26;26.93;;;25.33;;
7239;SDS011;3661;53.288;10.458;2022-12-16T03:56:58;29.10;;;27.60;;
7239;SDS011;3661;53.288;10.458;2022-12-16T03:59:30;27.75;;;26.23;;
7239;SDS011;3661;53.288;10.458;2022-12-16T04:02:03;28.65;;;26.95;;
7239;SDS011;3661;53.288;10.458;2022-12-16T04:04:35;25.15;;;23.55;;
7239;SDS011;3661;53.288;10.458;2022-12-16T04:07:08;27.07;;;25.60;;
7239;SDS011;3661;53.288;10.458;2022-12-16T04:09:53;26.38;;;24.98;;
7239;SDS011;3661;53.288;10.458;2022-12-16T04:12:25;27.23;;;25.52;;
7239;SDS011;3661;53.288;10.458;2022-12-16T04:15:16;25.50;;;24.00;;
7239;SDS011;3661;53.288;10.458;2022-12-16T04:18:04;25.33;;;23.92;;
7239;SDS011;3661;53.288;10.458;2022-12-16T04:21:00;26.15;;;24.58;;
7239;SDS011;3661;53.288;10.458;2022-12-16T04:24:04;29.27;;;27.50;;
7239;SDS011;3661;53.288;10.458;2022-12-16T04:26:49;27.60;;;26.17;;
7239;SDS011;3661;53.288;10.458;2022-12-16T04:29:38;25.98;;;24.65;;
7239;SDS011;3661;53.288;10.458;2022-12-16T04:32:33;25.95;;;24.55;;
7239;SDS011;3661;53.288;10.458;2022-12-16T04:35:19;25.55;;;24.05;;
7239;SDS011;3661;53.288;10.458;2022-12-16T04:38:09;28.67;;;26.98;;
7239;SDS011;3661;53.288;10.458;2022-12-16T04:41:00;29.00;;;27.30;;
7239;SDS011;3661;53.288;10.458;2022-12-16T04:43:50;27.60;;;26.10;;
7239;SDS011;3661;53.288;10.458;2022-12-16T04:46:39;28.17;;;26.58;;
7239;SDS011;3661;53.288;10.458;2022-12-16T04:49:29;26.30;;;24.80;;
7239;SDS011;3661;53.288;10.458;2022-12-16T04:52:19;29.17;;;27.67;;
7239;SDS011;3661;53.288;10.458;2022-12-16T04:55:08;27.13;;;25.63;;
7239;SDS011;3661;53.288;10.458;2022-12-16T04:58:00;27.83;;;26.20;;
7239;SDS011;3661;53.288;10.458;2022-12-16T05:00:49;25.55;;;24.25;;
7239;SDS011;3661;53.288;10.458;2022-12-16T05:03:39;25.65;;;24.15;;
7239;SDS011;3661;53.288;10.458;2022-12-16T05:06:28;27.13;;;25.63;;
7239;SDS011;3661;53.288;10.458;2022-12-16T05:09:18;26.88;;;25.45;;
7239;SDS011;3661;53.288;10.458;2022-12-16T05:12:18;26.63;;;24.98;;
7239;SDS011;3661;53.288;10.458;2022-12-16T05:15:09;27.92;;;26.27;;
7239;SDS011;3661;53.288;10.458;2022-12-16T05:18:05;26.83;;;25.23;;
7239;SDS011;3661;53.288;10.458;2022-12-16T05:20:56;26.05;;;24.52;;
7239;SDS011;3661;53.288;10.458;2022-12-16T05:23:51;25.97;;;24.37;;
7239;SDS011;3661;53.288;10.458;2022-12-16T05:26:40;31.60;;;29.50;;
7239;SDS011;3661;53.288;10.458;2022-12-16T05:29:32;29.95;;;28.17;;
7239;SDS011;3661;53.288;10.458;2022-12-16T05:32:23;28.87;;;27.10;;
7239;SDS011;3661;53.288;10.458;2022-12-16T05:35:18;28.70;;;27.00;;
7239;SDS011;3661;53.288;10.458;2022-12-16T05:38:07;32.00;;;30.10;;
7239;SDS011;3661;53.288;10.458;2022-12-16T05:40:56;29.40;;;27.52;;
7239;SDS011;3661;53.288;10.458;2022-12-16T05:43:45;30.20;;;28.50;;
7239;SDS011;3661;53.288;10.458;2022-12-16T05:46:35;33.28;;;31.40;;
7239;SDS011;3661;53.288;10.458;2022-12-16T05:49:26;29.80;;;28.00;;
7239;SDS011;3661;53.288;10.458;2022-12-16T05:52:15;29.73;;;27.83;;
7239;SDS011;3661;53.288;10.458;2022-12-16T05:55:05;28.15;;;26.35;;
7239;SDS011;3661;53.288;10.458;2022-12-16T05:57:54;29.42;;;27.63;;
7239;SDS011;3661;53.288;10.458;2022-12-16T06:00:45;28.98;;;27.17;;
7239;SDS011;3661;53.288;10.458;2022-12-16T06:03:34;28.83;;;27.13;;
7239;SDS011;3661;53.288;10.458;2022-12-16T06:06:25;30.08;;;28.30;;
7239;SDS011;3661;53.288;10.458;2022-12-16T06:09:15;32.72;;;30.73;;
7239;SDS011;3661;53.288;10.458;2022-12-16T06:12:04;29.50;;;27.93;;
7239;SDS011;3661;53.288;10.458;2022-12-16T06:14:54;31.42;;;29.45;;
7239;SDS011;3661;53.288;10.458;2022-12-16T06:17:46;29.85;;;28.20;;
7239;SDS011;3661;53.288;10.458;2022-12-16T06:20:36;25.52;;;24.17;;
7239;SDS011;3661;53.288;10.458;2022-12-16T06:23:27;28.13;;;26.33;;
7239;SDS011;3661;53.288;10.458;2022-12-16T06:26:17;26.58;;;25.02;;
7239;SDS011;3661;53.288;10.458;2022-12-16T06:29:07;27.88;;;26.25;;
7239;SDS011;3661;53.288;10.458;2022-12-16T06:31:57;26.67;;;24.97;;
7239;SDS011;3661;53.288;10.458;2022-12-16T06:34:47;27.80;;;26.10;;
7239;SDS011;3661;53.288;10.458;2022-12-16T06:37:36;27.38;;;25.80;;
7239;SDS011;3661;53.288;10.458;2022-12-16T06:40:27;30.50;;;28.65;;
7239;SDS011;3661;53.288;10.458;2022-12-16T06:43:16;29.42;;;27.65;;
7239;SDS011;3661;53.288;10.458;2022-12-16T06:46:05;30.38;;;28.52;;
7239;SDS011;3661;53.288;10.458;2022-12-16T06:48:55;29.83;;;28.17;;
7239;SDS011;3661;53.288;10.458;2022-12-16T06:51:44;26.60;;;24.95;;
7239;SDS011;3661;53.288;10.458;2022-12-16T06:54:34;30.10;;;28.52;;
7239;SDS011;3661;53.288;10.458;2022-12-16T06:57:24;28.77;;;27.25;;
7239;SDS011;3661;53.288;10.458;2022-12-16T07:00:13;31.67;;;29.98;;
7239;SDS011;3661;53.288;10.458;2022-12-16T07:03:03;28.95;;;27.33;;
7239;SDS011;3661;53.288;10.458;2022-12-16T07:05:52;27.42;;;25.83;;
7239;SDS011;3661;53.288;10.458;2022-12-16T07:08:42;27.92;;;26.42;;
7239;SDS011;3661;53.288;10.458;2022-12-16T07:11:31;32.70;;;31.05;;
7239;SDS011;3661;53.288;10.458;2022-12-16T07:14:22;31.27;;;29.48;;
7239;SDS011;3661;53.288;10.458;2022-12-16T07:17:11;31.65;;;29.70;;
7239;SDS011;3661;53.288;10.458;2022-12-16T07:20:00;29.77;;;27.80;;
7239;SDS011;3661;53.288;10.458;2022-12-16T07:22:50;32.08;;;30.08;;
7239;SDS011;3661;53.288;10.458;2022-12-16T07:25:39;27.95;;;26.25;;
7239;SDS011;3661;53.288;10.458;2022-12-16T07:28:29;30.13;;;28.25;;
7239;SDS011;3661;53.288;10.458;2022-12-16T07:31:20;31.83;;;29.92;;
7239;SDS011;3661;53.288;10.458;2022-12-16T07:34:09;33.88;;;31.98;;
7239;SDS011;3661;53.288;10.458;2022-12-16T07:36:59;30.58;;;28.67;;
7239;SDS011;3661;53.288;10.458;2022-12-16T07:39:48;31.92;;;30.02;;
7239;SDS011;3661;53.288;10.458;2022-12-16T07:42:39;32.22;;;30.30;;
7239;SDS011;3661;53.288;10.458;2022-12-16T07:45:29;29.50;;;27.85;;
7239;SDS011;3661;53.288;10.458;2022-12-16T07:48:20;32.45;;;30.45;;
7239;SDS011;3661;53.288;10.458;2022-12-16T07:51:09;32.72;;;30.80;;
7239;SDS011;3661;53.288;10.458;2022-12-16T07:53:58;33.38;;;31.30;;
7239;SDS011;3661;53.288;10.458;2022-12-16T07:56:48;35.60;;;33.28;;
7239;SDS011;3661;53.288;10.458;2022-12-16T07:59:37;35.05;;;32.75;;
7239;SDS011;3661;53.288;10.458;2022-12-16T08:02:26;33.63;;;31.58;;
7239;SDS011;3661;53.288;10.458;2022-12-16T08:05:17;32.75;;;30.63;;
7239;SDS011;3661;53.288;10.458;2022-12-16T08:08:07;33.05;;;30.77;;
7239;SDS011;3661;53.288;10.458;2022-12-16T08:10:56;34.93;;;32.83;;
7239;SDS011;3661;53.288;10.458;2022-12-16T08:13:45;34.58;;;32.10;;
7239;SDS011;3661;53.288;10.458;2022-12-16T08:16:34;31.80;;;29.80;;
7239;SDS011;3661;53.288;10.458;2022-12-16T08:19:24;32.97;;;30.80;;
7239;SDS011;3661;53.288;10.458;2022-12-16T08:22:15;34.55;;;32.55;;
7239;SDS011;3661;53.288;10.458;2022-12-16T08:25:04;34.80;;;32.80;;
7239;SDS011;3661;53.288;10.458;2022-12-16T08:27:54;32.30;;;30.30;;
7239;SDS011;3661;53.288;10.458;2022-12-16T08:30:44;32.13;;;30.13;;
7239;SDS011;3661;53.288;10.458;2022-12-16T08:33:37;33.28;;;31.27;;
7239;SDS011;3661;53.288;10.458;2022-12-16T08:36:26;31.92;;;29.75;;
7239;SDS011;3661;53.288;10.458;2022-12-16T08:39:17;34.58;;;32.45;;
7239;SDS011;3661;53.288;10.458;2022-12-16T08:42:08;34.20;;;32.20;;
7239;SDS011;3661;53.288;10.458;2022-12-16T08:44:58;35.50;;;33.23;;
7239;SDS011;3661;53.288;10.458;2022-12-16T08:47:47;34.55;;;32.35;;
7239;SDS011;3661;53.288;10.458;2022-12-16T08:50:37;36.10;;;33.78;;
7239;SDS011;3661;53.288;10.458;2022-12-16T08:53:26;34.13;;;32.17;;
7239;SDS011;3661;53.288;10.458;2022-12-16T08:56:17;34.35;;;32.13;;
7239;SDS011;3661;53.288;10.458;2022-12-16T08:59:06;30.75;;;28.55;;
7239;SDS011;3661;53.288;10.458;2022-12-16T09:01:55;32.70;;;30.67;;
7239;SDS011;3661;53.288;10.458;2022-12-16T09:04:45;30.27;;;28.42;;
7239;SDS011;3661;53.288;10.458;2022-12-16T09:07:34;30.65;;;28.73;;
7239;SDS011;3661;53.288;10.458;2022-12-16T09:10:23;31.73;;;29.67;;
7239;SDS011;3661;53.288;10.458;2022-12-16T09:13:14;33.13;;;31.25;;
7239;SDS011;3661;53.288;10.458;2022-12-16T09:16:04;35.33;;;33.13;;
7239;SDS011;3661;53.288;10.458;2022-12-16T09:18:54;33.97;;;31.98;;
7239;SDS011;3661;53.288;10.458;2022-12-16T09:21:52;35.25;;;33.00;;
7239;SDS011;3661;53.288;10.458;2022-12-16T09:24:42;34.17;;;32.27;;
7239;SDS011;3661;53.288;10.458;2022-12-16T09:27:35;37.38;;;35.08;;
7239;SDS011;3661;53.288;10.458;2022-12-16T09:30:25;35.28;;;33.15;;
7239;SDS011;3661;53.288;10.458;2022-12-16T09:33:11;33.63;;;31.60;;
7239;SDS011;3661;53.288;10.458;2022-12-16T09:36:01;35.60;;;33.60;;
7239;SDS011;3661;53.288;10.458;2022-12-16T09:38:50;36.33;;;34.27;;
7239;SDS011;3661;53.288;10.458;2022-12-16T09:41:41;33.47;;;31.52;;
7239;SDS011;3661;53.288;10.458;2022-12-16T09:44:38;33.97;;;31.77;;
7239;SDS011;3661;53.288;10.458;2022-12-16T09:47:37;34.33;;;32.13;;
7239;SDS011;3661;53.288;10.458;2022-12-16T09:50:33;36.63;;;34.38;;
7239;SDS011;3661;53.288;10.458;2022-12-16T09:53:27;37.40;;;35.20;;
7239;SDS011;3661;53.288;10.458;2022-12-16T09:56:24;33.22;;;31.23;;
7239;SDS011;3661;53.288;10.458;2022-12-16T09:59:18;34.22;;;32.17;;
7239;SDS011;3661;53.288;10.458;2022-12-16T10:02:12;34.95;;;32.75;;
7239;SDS011;3661;53.288;10.458;2022-12-16T10:05:09;32.58;;;30.63;;
7239;SDS011;3661;53.288;10.458;2022-12-16T10:08:02;33.72;;;31.70;;
7239;SDS011;3661;53.288;10.458;2022-12-16T10:10:59;35.67;;;33.50;;
7239;SDS011;3661;53.288;10.458;2022-12-16T10:13:56;33.30;;;31.10;;
7239;SDS011;3661;53.288;10.458;2022-12-16T10:16:50;33.15;;;31.05;;
7239;SDS011;3661;53.288;10.458;2022-12-16T10:19:49;33.35;;;31.38;;
7239;SDS011;3661;53.288;10.458;2022-12-16T10:22:48;35.47;;;33.28;;
7239;SDS011;3661;53.288;10.458;2022-12-16T10:25:45;34.63;;;32.53;;
7239;SDS011;3661;53.288;10.458;2022-12-16T10:28:41;36.65;;;34.65;;
7239;SDS011;3661;53.288;10.458;2022-12-16T10:31:34;38.53;;;36.33;;
7239;SDS011;3661;53.288;10.458;2022-12-16T10:34:26;35.90;;;33.90;;
7239;SDS011;3661;53.288;10.458;2022-12-16T10:37:33;33.92;;;31.95;;
7239;SDS011;3661;53.288;10.458;2022-12-16T10:40:26;33.20;;;31.10;;
7239;SDS011;3661;53.288;10.458;2022-12-16T10:43:21;34.85;;;32.55;;
7239;SDS011;3661;53.288;10.458;2022-12-16T10:46:19;36.22;;;33.97;;
7239;SDS011;3661;53.288;10.458;2022-12-16T10:49:13;35.85;;;33.55;;
7239;SDS011;3661;53.288;10.458;2022-12-16T10:52:04;35.67;;;33.67;;
7239;SDS011;3661;53.288;10.458;2022-12-16T10:54:56;37.92;;;35.63;;
7239;SDS011;3661;53.288;10.458;2022-12-16T10:57:54;39.03;;;36.60;;
7239;SDS011;3661;53.288;10.458;2022-12-16T11:00:48;35.33;;;33.33;;
7239;SDS011;3661;53.288;10.458;2022-12-16T11:03:39;36.15;;;33.75;;
7239;SDS011;3661;53.288;10.458;2022-12-16T11:06:37;37.15;;;34.95;;
7239;SDS011;3661;53.288;10.458;2022-12-16T11:09:28;37.38;;;35.10;;
7239;SDS011;3661;53.288;10.458;2022-12-16T11:12:20;34.67;;;32.55;;
7239;SDS011;3661;53.288;10.458;2022-12-16T11:15:28;36.17;;;33.67;;
7239;SDS011;3661;53.288;10.458;2022-12-16T11:18:19;36.20;;;33.83;;
7239;SDS011;3661;53.288;10.458;2022-12-16T11:21:11;37.23;;;35.03;;
7239;SDS011;3661;53.288;10.458;2022-12-16T11:24:06;37.33;;;35.10;;
7239;SDS011;3661;53.288;10.458;2022-12-16T11:27:03;39.00;;;36.23;;
7239;SDS011;3661;53.288;10.458;2022-12-16T11:29:54;39.10;;;36.78;;
7239;SDS011;3661;53.288;10.458;2022-12-16T11:32:47;38.88;;;36.58;;
7239;SDS011;3661;53.288;10.458;2022-12-16T11:35:40;40.28;;;37.53;;
7239;SDS011;3661;53.288;10.458;2022-12-16T11:38:35;40.05;;;37.45;;
7239;SDS011;3661;53.288;10.458;2022-12-16T11:41:29;38.78;;;36.38;;
7239;SDS011;3661;53.288;10.458;2022-12-16T11:44:24;37.22;;;34.97;;
7239;SDS011;3661;53.288;10.458;2022-12-16T11:47:18;37.28;;;35.03;;
7239;SDS011;3661;53.288;10.458;2022-12-16T11:50:13;38.37;;;35.63;;
7239;SDS011;3661;53.288;10.458;2022-12-16T11:53:10;37.65;;;35.25;;
7239;SDS011;3661;53.288;10.458;2022-12-16T11:56:12;40.38;;;37.97;;
7239;SDS011;3661;53.288;10.458;2022-12-16T11:59:07;41.80;;;39.30;;
7239;SDS011;3661;53.288;10.458;2022-12-16T12:02:02;39.78;;;37.45;;
7239;SDS011;3661;53.288;10.458;2022-12-16T12:04:59;37.40;;;35.00;;
7239;SDS011;3661;53.288;10.458;2022-12-16T12:07:53;37.55;;;35.28;;
7239;SDS011;3661;53.288;10.458;2022-12-16T12:10:54;41.60;;;38.90;;
7239;SDS011;3661;53.288;10.458;2022-12-16T12:13:55;42.33;;;39.70;;
7239;SDS011;3661;53.288;10.458;2022-12-16T12:16:56;41.45;;;39.08;;
7239;SDS011;3661;53.288;10.458;2022-12-16T12:19:55;39.88;;;37.47;;
7239;SDS011;3661;53.288;10.458;2022-12-16T12:22:53;39.75;;;37.25;;
7239;SDS011;3661;53.288;10.458;2022-12-16T12:25:46;39.22;;;36.72;;
7239;SDS011;3661;53.288;10.458;2022-12-16T12:28:43;41.45;;;38.80;;
7239;SDS011;3661;53.288;10.458;2022-12-16T12:31:56;40.47;;;37.83;;
7239;SDS011;3661;53.288;10.458;2022-12-16T12:34:51;40.88;;;38.17;;
7239;SDS011;3661;53.288;10.458;2022-12-16T12:37:48;43.25;;;40.58;;
7239;SDS011;3661;53.288;10.458;2022-12-16T12:40:47;43.85;;;41.20;;
7239;SDS011;3661;53.288;10.458;2022-12-16T12:43:49;44.38;;;41.83;;
7239;SDS011;3661;53.288;10.458;2022-12-16T12:46:47;42.55;;;39.67;;
7239;SDS011;3661;53.288;10.458;2022-12-16T12:49:56;39.72;;;37.08;;
7239;SDS011;3661;53.288;10.458;2022-12-16T12:53:04;42.17;;;39.42;;
7239;SDS011;3661;53.288;10.458;2022-12-16T12:56:06;39.25;;;36.88;;
7239;SDS011;3661;53.288;10.458;2022-12-16T12:59:03;40.57;;;37.97;;
7239;SDS011;3661;53.288;10.458;2022-12-16T13:02:00;42.22;;;39.63;;
7239;SDS011;3661;53.288;10.458;2022-12-16T13:04:53;40.22;;;37.78;;
7239;SDS011;3661;53.288;10.458;2022-12-16T13:07:43;40.58;;;37.80;;
7239;SDS011;3661;53.288;10.458;2022-12-16T13:10:35;40.65;;;38.08;;
7239;SDS011;3661;53.288;10.458;2022-12-16T13:13:29;38.83;;;36.22;;
7239;SDS011;3661;53.288;10.458;2022-12-16T13:19:53;42.03;;;39.45;;
7239;SDS011;3661;53.288;10.458;2022-12-16T13:22:46;42.15;;;39.28;;
7239;SDS011;3661;53.288;10.458;2022-12-16T13:25:38;42.58;;;39.88;;
7239;SDS011;3661;53.288;10.458;2022-12-16T13:28:33;41.83;;;39.22;;
7239;SDS011;3661;53.288;10.458;2022-12-16T13:31:24;40.47;;;37.83;;
7239;SDS011;3661;53.288;10.458;2022-12-16T13:34:20;43.33;;;40.47;;
7239;SDS011;3661;53.288;10.458;2022-12-16T13:37:17;42.65;;;40.03;;
7239;SDS011;3661;53.288;10.458;2022-12-16T13:40:13;42.95;;;40.35;;
7239;SDS011;3661;53.288;10.458;2022-12-16T13:43:16;40.25;;;37.50;;
7239;SDS011;3661;53.288;10.458;2022-12-16T13:46:38;41.45;;;39.03;;
7239;SDS011;3661;53.288;10.458;2022-12-16T13:49:38;40.45;;;37.83;;
7239;SDS011;3661;53.288;10.458;2022-12-16T13:52:35;45.13;;;42.33;;
7239;SDS011;3661;53.288;10.458;2022-12-16T13:55:30;40.67;;;38.08;;
7239;SDS011;3661;53.288;10.458;2022-12-16T13:58:28;42.03;;;39.23;;
7239;SDS011;3661;53.288;10.458;2022-12-16T14:01:26;41.72;;;38.97;;
7239;SDS011;3661;53.288;10.458;2022-12-16T14:04:26;42.28;;;39.80;;
7239;SDS011;3661;53.288;10.458;2022-12-16T14:07:19;43.08;;;40.22;;
7239;SDS011;3661;53.288;10.458;2022-12-16T14:10:21;43.05;;;40.33;;
7239;SDS011;3661;53.288;10.458;2022-12-16T14:13:13;41.07;;;38.63;;
7239;SDS011;3661;53.288;10.458;2022-12-16T14:16:10;38.60;;;36.00;;
7239;SDS011;3661;53.288;10.458;2022-12-16T14:19:11;42.27;;;39.60;;
7239;SDS011;3661;53.288;10.458;2022-12-16T14:22:11;45.85;;;43.17;;
7239;SDS011;3661;53.288;10.458;2022-12-16T14:25:12;42.40;;;39.72;;
7239;SDS011;3661;53.288;10.458;2022-12-16T14:28:06;44.33;;;41.63;;
7239;SDS011;3661;53.288;10.458;2022-12-16T14:31:05;42.28;;;39.72;;
7239;SDS011;3661;53.288;10.458;2022-12-16T14:34:03;41.03;;;38.47;;
7239;SDS011;3661;53.288;10.458;2022-12-16T14:36:52;43.05;;;40.42;;
7239;SDS011;3661;53.288;10.458;2022-12-16T14:39:42;44.07;;;41.50;;
7239;SDS011;3661;53.288;10.458;2022-12-16T14:42:31;42.80;;;40.17;;
7239;SDS011;3661;53.288;10.458;2022-12-16T14:45:25;41.23;;;38.63;;
7239;SDS011;3661;53.288;10.458;2022-12-16T14:48:23;40.88;;;38.08;;
7239;SDS011;3661;53.288;10.458;2022-12-16T14:51:24;40.40;;;37.73;;
7239;SDS011;3661;53.288;10.458;2022-12-16T14:54:20;40.65;;;38.00;;
7239;SDS011;3661;53.288;10.458;2022-12-16T14:57:23;42.13;;;39.53;;
7239;SDS011;3661;53.288;10.458;2022-12-16T15:00:15;41.27;;;38.67;;
7239;SDS011;3661;53.288;10.458;2022-12-16T15:03:07;39.10;;;36.50;;
7239;SDS011;3661;53.288;10.458;2022-12-16T15:06:09;42.37;;;39.87;;
7239;SDS011;3661;53.288;10.458;2022-12-16T15:09:03;40.88;;;38.13;;
7239;SDS011;3661;53.288;10.458;2022-12-16T15:11:54;40.42;;;37.83;;
7239;SDS011;3661;53.288;10.458;2022-12-16T15:14:44;38.95;;;36.50;;
7239;SDS011;3661;53.288;10.458;2022-12-16T15:17:35;38.00;;;35.40;;
7239;SDS011;3661;53.288;10.458;2022-12-16T15:20:32;40.33;;;37.90;;
7239;SDS011;3661;53.288;10.458;2022-12-16T15:23:27;37.38;;;35.17;;
7239;SDS011;3661;53.288;10.458;2022-12-16T15:26:19;39.22;;;36.65;;
7239;SDS011;3661;53.288;10.458;2022-12-16T15:29:26;39.03;;;36.38;;
7239;SDS011;3661;53.288;10.458;2022-12-16T15:32:29;37.13;;;34.83;;
7239;SDS011;3661;53.288;10.458;2022-12-16T15:35:24;40.05;;;37.55;;
7239;SDS011;3661;53.288;10.458;2022-12-16T15:38:26;37.50;;;35.30;;
7239;SDS011;3661;53.288;10.458;2022-12-16T15:41:19;40.92;;;38.33;;
7239;SDS011;3661;53.288;10.458;2022-12-16T15:44:17;40.58;;;38.03;;
7239;SDS011;3661;53.288;10.458;2022-12-16T15:47:17;41.97;;;39.58;;
7239;SDS011;3661;53.288;10.458;2022-12-16T15:50:10;36.42;;;34.03;;
7239;SDS011;3661;53.288;10.458;2022-12-16T15:53:13;38.67;;;35.92;;
7239;SDS011;3661;53.288;10.458;2022-12-16T15:56:21;38.97;;;36.57;;
7239;SDS011;3661;53.288;10.458;2022-12-16T15:59:12;37.38;;;34.88;;
7239;SDS011;3661;53.288;10.458;2022-12-16T16:02:14;38.80;;;36.15;;
7239;SDS011;3661;53.288;10.458;2022-12-16T16:05:09;38.70;;;36.20;;
7239;SDS011;3661;53.288;10.458;2022-12-16T16:08:01;41.67;;;39.28;;
7239;SDS011;3661;53.288;10.458;2022-12-16T16:10:50;39.30;;;36.70;;
7239;SDS011;3661;53.288;10.458;2022-12-16T16:13:41;43.88;;;41.30;;
7239;SDS011;3661;53.288;10.458;2022-12-16T16:16:30;42.70;;;39.87;;
7239;SDS011;3661;53.288;10.458;2022-12-16T16:19:35;37.83;;;35.63;;
7239;SDS011;3661;53.288;10.458;2022-12-16T16:22:21;37.90;;;35.30;;
7239;SDS011;3661;53.288;10.458;2022-12-16T16:25:10;42.92;;;40.13;;
7239;SDS011;3661;53.288;10.458;2022-12-16T16:28:00;40.53;;;37.88;;
7239;SDS011;3661;53.288;10.458;2022-12-16T16:30:51;36.00;;;33.65;;
7239;SDS011;3661;53.288;10.458;2022-12-16T16:33:40;44.33;;;41.60;;
7239;SDS011;3661;53.288;10.458;2022-12-16T16:36:29;42.85;;;39.97;;
7239;SDS011;3661;53.288;10.458;2022-12-16T16:39:19;39.55;;;37.10;;
7239;SDS011;3661;53.288;10.458;2022-12-16T16:42:08;41.63;;;39.13;;
7239;SDS011;3661;53.288;10.458;2022-12-16T16:44:57;38.50;;;35.85;;
7239;SDS011;3661;53.288;10.458;2022-12-16T16:47:48;42.78;;;40.05;;
7239;SDS011;3661;53.288;10.458;2022-12-16T16:50:38;35.93;;;33.80;;
7239;SDS011;3661;53.288;10.458;2022-12-16T16:53:27;38.70;;;36.42;;
7239;SDS011;3661;53.288;10.458;2022-12-16T16:56:17;40.70;;;38.30;;